AirNav   Everest Fuels
 
 915 users online  

CO61 Golden Field (Yellow Hat) Airport
Gardner, Colorado, USA

GOING TO GARDNER?


FAA INFORMATION EFFECTIVE 27 JANUARY 2022

Location

FAA Identifier: CO61
Lat/Long: 37-50-32.0180N 105-12-49.9960W
37-50.533633N 105-12.833267W
37.8422272,-105.2138878
(estimated)
Elevation: 7710 ft. / 2350 m (estimated)
Variation: 11E (1985)
From city: 48 miles NW of GARDNER, CO
Time zone: UTC -7 (UTC -6 during Daylight Saving Time)
Zip code: 81040

Airport Operations

Airport use: Private use. Permission required prior to landing
Activation date: 11/1971
Control tower: no
ARTCC: DENVER CENTER
FSS: DENVER FLIGHT SERVICE STATION
Attendance: CONTINUOUS
Wind indicator: yes, 2 WINDSOCKS 15' AGL EACH 1000' INSIDE THRS AND 70' SOUTH OF RWY CNTRLN.
Segmented circle: no
Lights: FOR LIRL RY 11/29 CALL 719-746-2310.

Airport Services

Airframe service: NONE
Powerplant service: NONE

Runway Information

Runway 11/29

Dimensions: 3600 x 50 ft. / 1097 x 15 m
Surface: dirt
RUNWAY 11  RUNWAY 29
Traffic pattern: leftleft

Runway 8/26

Dimensions: 2800 x 45 ft. / 853 x 14 m
Surface: dirt
RUNWAY 8  RUNWAY 26
Traffic pattern: leftleft
Obstructions: nonetrees, 20 ft. from runway

Airport Ownership and Management from official FAA records

Ownership: Privately-owned
Owner: GOLDEN HELMET CORP
P.O. BOX 4
GARDNER, CO 81040
Phone 719-746-2310
Manager: ROBERT M LOEFFLER
P O BOX 4
GARDNER, CO 81040
Phone 719-746-2310

Airport Operational Statistics

Aircraft based on the field: 1
Single engine airplanes: 1
    

Additional Remarks

FOR CD CTC DENVER ARTCC AT 303-651-4257.

Instrument Procedures

There are no published instrument procedures at CO61.

Some nearby airports with instrument procedures:

4V1 - Spanish Peaks Airfield (22 nm SE)
1V6 - Fremont County Airport (36 nm N)
KALS - San Luis Valley Regional Airport/Bergman Field (40 nm SW)
KPUB - Pueblo Memorial Airport (43 nm NE)
KMVI - Monte Vista Municipal Airport (44 nm SW)
 
Loc | Ops | Rwys | IFR | FBO | Links
Com | Nav | Svcs | Stats | Notes

AirBoss

 
Area around CO61 (Golden Field (Yellow Hat) Airport)
 
Road maps at: MapQuest Bing Google
 
Aerial photo
No photo
 
Sectional chart

 
Airport distance calculator
Flying to Golden Field (Yellow Hat) Airport? Find the distance to fly.

From to CO61

Sunrise and sunset
Times for 29-Jan-2022
 Local
(UTC-7)
 Zulu
(UTC)
Morning civil twilight06:4113:41
Sunrise07:0814:08
Sunset17:2000:20
Evening civil twilight17:4800:48

Current date and time
Zulu (UTC)  29-Jan-2022 08:43:00
Local (UTC-7)  29-Jan-2022 01:43:00
 
METAR
KVTP 
21nm S 
290815Z AUTO 28013KT 10SM CLR M10/M18 A3036 RMK AO2
K1V6 
36nm N 
290815Z AUTO 31018KT 10SM CLR 02/M14 A3024 RMK AO2
KALS 
40nm SW 
290752Z AUTO 23005KT 10SM CLR M22/M24 A3046 RMK AO2 SLP414 I1000 T12221239
TAF
KALS 
40nm SW 
290539Z 2906/3006 VRB04KT P6SM SKC FM291100 VRB03KT 5SM BR SCT001 FM291600 VRB05KT P6SM SKC
KPUB 
43nm NE 
290539Z 2906/3006 27005KT P6SM FEW250 FM292000 10006KT P6SM SKC FM300200 33005KT P6SM SKC
NOTAMs
Click for the latest NOTAMs
NOTAMs are issued by the DoD/FAA and will open in a separate window not controlled by AirNav.

 

 
 

Would you like to see your business listed on this page?

 If your business provides an interesting product or service to pilots, flight crews, aircraft, or users of the Golden Field (Yellow Hat) Airport, you should consider listing it here.  To start the listing process, click on the button below
 
Add a business
 

Other Pages about Golden Field (Yellow Hat) Airport

Update a link
 
Copyright © AirNav, LLC. All rights reserved. Privacy Policy  Contact